Time;durP1;ratioP1;P1;durP2;ratioP2;P2;SDS_P1;SDS_P2;PMS_P1;PMS_P2;Temp;Humidity;BMP_temperature;BMP_pressure;BME280_temperature;BME280_humidity;BME280_pressure;Samples;Min_cycle;Max_cycle;Signal;HPM_P1;HPM_P2
2022/07/07 00:01:47;;;;;;;12.60;9.82;;;16.70;1.00;;;;;;4959706;28;20475;-82
2022/07/07 00:04:13;;;;;;;13.68;9.82;;;16.70;1.00;;;;;;4941429;28;20043;-82
2022/07/07 00:06:39;;;;;;;12.85;9.05;;;16.70;1.00;;;;;;4944293;28;20046;-82
2022/07/07 00:09:04;;;;;;;13.02;10.00;;;16.80;1.00;;;;;;4961395;28;20038;-83
2022/07/07 00:11:30;;;;;;;15.80;9.88;;;16.80;1.00;;;;;;4944248;28;20386;-82
2022/07/07 00:13:56;;;;;;;13.43;9.77;;;16.80;1.00;;;;;;4961413;28;20097;-83
2022/07/07 00:16:22;;;;;;;13.68;9.98;;;16.80;1.00;;;;;;4960119;28;20122;-83
2022/07/07 00:18:48;;;;;;;14.57;9.73;;;16.70;1.00;;;;;;4944618;28;20072;-83
2022/07/07 00:21:14;;;;;;;14.57;10.45;;;16.70;1.00;;;;;;4944259;28;20450;-83
2022/07/07 00:23:43;;;;;;;14.45;10.15;;;16.80;1.00;;;;;;4961562;28;20121;-83
2022/07/07 00:26:09;;;;;;;14.43;10.15;;;16.70;1.00;;;;;;4944760;28;20053;-82
2022/07/07 00:28:34;;;;;;;14.52;10.15;;;16.70;1.00;;;;;;4944107;28;20034;-83
2022/07/07 00:31:00;;;;;;;16.13;10.57;;;16.80;1.00;;;;;;4945442;28;20233;-83
2022/07/07 00:33:27;;;;;;;15.82;10.20;;;16.70;1.00;;;;;;4961029;28;20106;-82
2022/07/07 00:35:56;;;;;;;17.30;10.07;;;16.60;1.00;;;;;;4960012;28;20097;-82
2022/07/07 00:38:22;;;;;;;17.73;11.48;;;16.60;1.00;;;;;;4960411;28;20039;-82
2022/07/07 00:40:52;;;;;;;15.85;10.93;;;16.70;13.90;;;;;;4944059;28;20039;-83
2022/07/07 00:43:18;;;;;;;13.82;11.00;;;16.70;25.60;;;;;;4959408;28;20358;-83
2022/07/07 00:45:51;;;;;;;14.40;11.13;;;16.60;23.50;;;;;;4944031;28;20042;-82
2022/07/07 00:48:21;;;;;;;22.67;11.27;;;16.60;22.90;;;;;;4946192;28;20104;-82
2022/07/07 00:50:47;;;;;;;14.00;10.05;;;16.70;18.90;;;;;;4960183;28;20494;-82
2022/07/07 00:53:15;;;;;;;13.93;9.80;;;16.70;24.50;;;;;;4961020;28;20478;-83
2022/07/07 00:55:42;;;;;;;15.85;10.57;;;16.70;14.10;;;;;;4942182;28;20454;-84
2022/07/07 00:58:07;;;;;;;14.55;10.18;;;16.60;24.80;;;;;;4961493;28;20051;-84
2022/07/07 01:00:34;;;;;;;15.32;9.73;;;16.60;58.20;;;;;;4960737;28;20049;-83
2022/07/07 01:03:00;;;;;;;17.00;9.82;;;16.70;60.60;;;;;;4976721;28;20117;-83
2022/07/07 01:05:26;;;;;;;15.98;9.77;;;16.70;75.30;;;;;;4944087;28;20118;-84
2022/07/07 01:07:53;;;;;;;10.68;7.95;;;16.70;99.80;;;;;;4945601;28;20065;-84
2022/07/07 01:10:19;;;;;;;11.40;6.78;;;16.60;99.90;;;;;;4961107;28;20490;-84
2022/07/07 01:12:48;;;;;;;13.13;6.78;;;16.60;99.90;;;;;;4944386;28;20031;-84
2022/07/07 01:15:14;;;;;;;8.35;5.68;;;16.60;99.90;;;;;;4943767;28;20110;-84
2022/07/07 01:17:40;;;;;;;5.88;5.22;;;16.60;99.90;;;;;;4956675;28;20146;-83
2022/07/07 01:20:08;;;;;;;7.35;4.82;;;16.50;99.90;;;;;;4957497;28;20047;-84
2022/07/07 01:22:36;;;;;;;5.63;4.47;;;16.50;99.90;;;;;;4940516;28;20138;-83
2022/07/07 01:25:04;;;;;;;5.55;4.47;;;16.50;99.90;;;;;;4959698;28;20043;-83
2022/07/07 01:27:29;;;;;;;8.52;4.60;;;16.40;99.90;;;;;;4941290;28;20109;-83
2022/07/07 01:29:57;;;;;;;10.88;4.93;;;16.40;99.90;;;;;;4943282;28;20510;-83
2022/07/07 01:32:24;;;;;;;4.78;4.10;;;16.40;99.90;;;;;;4941502;28;20100;-82
2022/07/07 01:34:51;;;;;;;8.27;4.68;;;16.50;99.90;;;;;;4942215;28;20074;-82
2022/07/07 01:37:18;;;;;;;5.53;3.63;;;16.40;99.90;;;;;;4948900;28;20057;-82
2022/07/07 01:39:44;;;;;;;8.60;4.70;;;16.40;99.90;;;;;;4943315;28;20094;-82
2022/07/07 01:42:11;;;;;;;7.18;4.35;;;16.50;99.90;;;;;;4941607;28;20039;-83
2022/07/07 01:44:39;;;;;;;8.68;4.60;;;16.50;99.90;;;;;;4958113;28;20508;-83
2022/07/07 01:47:09;;;;;;;8.18;4.65;;;16.40;99.90;;;;;;4950975;28;20510;-82
2022/07/07 01:49:35;;;;;;;9.40;4.85;;;16.40;99.90;;;;;;4958879;28;20073;-82
2022/07/07 01:52:03;;;;;;;6.85;5.00;;;16.50;99.90;;;;;;4942603;28;20455;-82
2022/07/07 01:54:30;;;;;;;5.88;4.40;;;16.40;99.90;;;;;;4938865;28;20126;-82
2022/07/07 01:56:56;;;;;;;8.27;4.70;;;16.40;99.90;;;;;;4959625;28;20447;-82
2022/07/07 01:59:22;;;;;;;8.52;4.60;;;16.40;99.90;;;;;;4940790;28;20042;-82
2022/07/07 02:01:48;;;;;;;7.20;5.00;;;16.40;99.90;;;;;;4959375;28;20101;-82
2022/07/07 02:04:16;;;;;;;9.23;4.88;;;16.40;99.90;;;;;;4959241;28;20410;-82
2022/07/07 02:06:41;;;;;;;7.38;5.30;;;16.50;99.90;;;;;;4945473;28;20038;-83
2022/07/07 02:09:07;;;;;;;9.65;5.65;;;16.40;99.90;;;;;;4944262;28;20885;-83
2022/07/07 02:11:34;;;;;;;10.00;5.40;;;16.50;99.90;;;;;;4958573;28;20407;-82
2022/07/07 02:14:01;;;;;;;10.48;5.53;;;16.40;99.90;;;;;;4960514;28;20502;-82
2022/07/07 02:16:27;;;;;;;12.48;5.43;;;16.40;99.90;;;;;;4956239;28;20045;-82
2022/07/07 02:18:57;;;;;;;11.38;5.35;;;16.40;99.90;;;;;;4944055;28;20057;-83
2022/07/07 02:21:23;;;;;;;11.93;5.95;;;16.50;99.90;;;;;;4943944;28;20443;-82
2022/07/07 02:23:50;;;;;;;11.10;6.15;;;16.40;99.90;;;;;;4961221;28;20053;-82
2022/07/07 02:26:16;;;;;;;11.30;6.30;;;16.40;99.90;;;;;;4960577;28;20075;-82
2022/07/07 02:28:42;;;;;;;14.40;6.78;;;16.40;99.90;;;;;;4943946;28;20074;-82
2022/07/07 02:31:09;;;;;;;10.35;6.13;;;16.40;99.90;;;;;;4957842;28;20039;-82
2022/07/07 02:33:35;;;;;;;13.45;6.30;;;16.50;99.90;;;;;;4959390;28;20045;-81
2022/07/07 02:36:03;;;;;;;11.10;5.88;;;16.40;99.90;;;;;;4942764;28;20071;-82
2022/07/07 02:38:29;;;;;;;12.20;6.47;;;16.40;99.90;;;;;;4960082;28;20129;-81
2022/07/07 02:40:55;;;;;;;13.45;6.20;;;16.40;99.90;;;;;;4960801;28;20026;-82
2022/07/07 02:43:24;;;;;;;16.42;6.03;;;16.50;99.90;;;;;;4971443;28;20296;-82
2022/07/07 02:45:51;;;;;;;8.20;4.97;;;16.40;99.90;;;;;;4940739;28;20038;-82
2022/07/07 02:48:19;;;;;;;13.02;5.20;;;16.50;99.90;;;;;;4957997;28;20275;-81
2022/07/07 02:50:45;;;;;;;13.60;4.80;;;16.50;99.90;;;;;;4940503;28;20491;-82
2022/07/07 02:53:11;;;;;;;10.32;4.47;;;16.50;99.90;;;;;;4936859;28;20114;-81
2022/07/07 02:55:38;;;;;;;10.35;4.45;;;16.50;99.90;;;;;;4956572;28;20070;-81
2022/07/07 02:58:06;;;;;;;11.15;4.38;;;16.50;99.90;;;;;;4958720;28;20141;-82
2022/07/07 03:00:33;;;;;;;11.68;3.90;;;16.50;99.90;;;;;;4943873;28;20047;-81
2022/07/07 03:03:03;;;;;;;8.15;3.63;;;16.40;99.90;;;;;;4942984;28;20114;-81
2022/07/07 03:05:30;;;;;;;12.10;3.67;;;16.50;87.30;;;;;;4943091;28;20445;-82
2022/07/07 03:07:56;;;;;;;11.63;3.10;;;16.40;42.50;;;;;;4962235;28;20383;-81
2022/07/07 03:10:22;;;;;;;8.73;3.25;;;16.40;9.20;;;;;;4944886;28;20493;-81
2022/07/07 03:12:48;;;;;;;9.02;3.20;;;16.30;1.00;;;;;;4962445;28;20237;-81
2022/07/07 03:15:14;;;;;;;8.55;2.75;;;16.40;1.00;;;;;;4945551;28;20069;-81
2022/07/07 03:17:44;;;;;;;9.65;3.33;;;16.40;1.00;;;;;;4955182;28;20043;-82
2022/07/07 03:20:11;;;;;;;7.80;3.15;;;16.30;1.00;;;;;;4961935;28;20446;-82
2022/07/07 03:22:40;;;;;;;9.30;2.80;;;16.20;1.00;;;;;;4944155;28;20166;-82
2022/07/07 03:25:06;;;;;;;8.65;2.88;;;16.30;1.00;;;;;;4946796;28;20049;-82
2022/07/07 03:27:33;;;;;;;9.45;2.90;;;16.20;7.10;;;;;;4946054;28;20363;-82
2022/07/07 03:29:59;;;;;;;6.55;2.75;;;16.30;5.90;;;;;;4943975;28;20471;-82
2022/07/07 03:32:24;;;;;;;8.02;3.05;;;16.30;44.20;;;;;;4964122;28;20085;-82
2022/07/07 03:34:50;;;;;;;10.55;3.40;;;16.20;36.10;;;;;;4946009;28;20118;-85
2022/07/07 03:37:16;;;;;;;10.40;4.03;;;16.10;83.90;;;;;;4963009;28;20066;-83
2022/07/07 03:39:42;;;;;;;8.95;3.20;;;16.10;99.90;;;;;;4947084;28;20035;-83
2022/07/07 03:42:08;;;;;;;9.73;3.40;;;16.10;99.90;;;;;;4975890;28;20230;-85
2022/07/07 03:44:34;;;;;;;8.55;2.72;;;16.20;99.90;;;;;;4945984;28;20038;-85
2022/07/07 03:46:59;;;;;;;5.72;2.15;;;16.10;99.90;;;;;;4959841;28;20483;-82
2022/07/07 03:49:25;;;;;;;6.07;2.10;;;16.10;1.00;;;;;;4945409;28;20053;-82
2022/07/07 03:51:51;;;;;;;7.88;2.45;;;16.10;30.30;;;;;;4946454;28;20038;-82
2022/07/07 03:54:17;;;;;;;6.95;2.60;;;16.10;62.80;;;;;;4962594;28;20054;-82
2022/07/07 03:56:43;;;;;;;9.63;2.47;;;16.10;33.70;;;;;;4960504;28;20102;-82
2022/07/07 03:59:11;;;;;;;8.25;2.70;;;16.00;46.60;;;;;;4946505;28;20050;-82
2022/07/07 04:01:37;;;;;;;7.93;2.13;;;16.10;9.40;;;;;;4941724;28;20062;-82
2022/07/07 04:04:05;;;;;;;10.60;2.17;;;16.00;12.50;;;;;;4960679;28;20513;-84
2022/07/07 04:06:31;;;;;;;9.73;2.30;;;16.00;1.00;;;;;;4944384;28;20047;-83
2022/07/07 04:08:58;;;;;;;12.40;1.85;;;15.90;9.70;;;;;;4946485;28;20121;-82
2022/07/07 04:11:23;;;;;;;8.15;1.88;;;15.90;1.00;;;;;;4962012;28;20034;-83
2022/07/07 04:13:49;;;;;;;6.93;1.90;;;15.90;99.90;;;;;;4954478;28;20045;-82
2022/07/07 04:16:15;;;;;;;5.68;1.50;;;15.90;99.90;;;;;;4961823;28;20109;-82
2022/07/07 04:18:41;;;;;;;9.93;2.10;;;15.80;99.90;;;;;;4946264;28;20047;-82
2022/07/07 04:21:06;;;;;;;10.10;1.60;;;15.70;99.90;;;;;;4961749;28;20376;-82
2022/07/07 04:23:32;;;;;;;12.25;1.83;;;15.70;99.90;;;;;;4962624;28;20134;-82
2022/07/07 04:25:58;;;;;;;10.93;1.90;;;15.70;99.90;;;;;;4946733;28;20066;-82
2022/07/07 04:28:23;;;;;;;8.20;1.90;;;15.60;99.90;;;;;;4963256;28;20042;-82
2022/07/07 04:30:49;;;;;;;11.98;2.20;;;15.60;47.50;;;;;;4962534;28;20120;-82
2022/07/07 04:33:15;;;;;;;9.50;2.05;;;15.60;50.70;;;;;;4954329;28;20039;-82
2022/07/07 04:35:41;;;;;;;9.45;2.35;;;15.60;10.20;;;;;;4958608;28;20035;-82
2022/07/07 04:38:06;;;;;;;14.07;2.20;;;15.60;1.00;;;;;;4947167;28;20123;-82
2022/07/07 04:40:32;;;;;;;12.00;2.20;;;15.60;1.00;;;;;;4964465;28;20275;-81
2022/07/07 04:42:58;;;;;;;9.48;2.28;;;15.60;1.00;;;;;;4947680;28;20708;-81
2022/07/07 04:45:23;;;;;;;10.93;1.90;;;15.60;1.00;;;;;;4956116;28;20086;-82
2022/07/07 04:47:49;;;;;;;6.88;2.17;;;15.60;1.00;;;;;;4941382;28;20110;-81
2022/07/07 04:50:15;;;;;;;7.28;2.22;;;15.60;99.90;;;;;;4945487;28;20067;-81
2022/07/07 04:52:41;;;;;;;9.70;2.33;;;15.60;99.90;;;;;;4946700;28;20050;-81
2022/07/07 04:55:08;;;;;;;9.30;2.08;;;15.70;1.00;;;;;;4961692;28;20599;-81
2022/07/07 04:57:35;;;;;;;7.78;1.80;;;15.60;99.90;;;;;;4946885;28;20073;-81
2022/07/07 05:00:01;;;;;;;7.05;1.90;;;15.60;99.90;;;;;;4956980;28;20287;-81
2022/07/07 05:02:27;;;;;;;10.52;2.80;;;15.60;99.90;;;;;;4946788;28;20133;-82
2022/07/07 05:04:52;;;;;;;6.90;1.65;;;15.60;99.90;;;;;;4946779;28;20921;-81
2022/07/07 05:07:18;;;;;;;10.38;1.98;;;15.60;99.90;;;;;;4945784;28;20157;-81
2022/07/07 05:09:44;;;;;;;6.70;1.88;;;15.60;99.90;;;;;;4959053;28;20157;-82
2022/07/07 05:12:10;;;;;;;7.50;1.58;;;15.60;99.90;;;;;;4944310;28;20451;-81
2022/07/07 05:14:39;;;;;;;11.95;1.95;;;15.70;99.90;;;;;;4961120;28;20169;-81
2022/07/07 05:17:05;;;;;;;14.07;1.90;;;15.80;99.90;;;;;;4947004;28;20073;-81
2022/07/07 05:19:31;;;;;;;7.45;1.85;;;15.80;99.90;;;;;;4944940;28;20046;-82
2022/07/07 05:21:56;;;;;;;8.88;1.85;;;15.70;99.90;;;;;;4946714;28;20395;-81
2022/07/07 05:24:22;;;;;;;8.00;1.92;;;15.70;99.90;;;;;;4941755;28;20046;-81
2022/07/07 05:26:48;;;;;;;8.35;1.92;;;15.70;99.90;;;;;;4946545;28;20046;-81
2022/07/07 05:29:14;;;;;;;9.02;1.95;;;15.60;99.90;;;;;;4946982;28;20118;-82
2022/07/07 05:31:40;;;;;;;10.30;2.65;;;15.60;1.00;;;;;;4957770;28;20041;-81
2022/07/07 05:34:05;;;;;;;9.35;2.42;;;15.40;1.00;;;;;;4943113;28;20442;-82
2022/07/07 05:36:32;;;;;;;10.40;2.38;;;15.40;1.00;;;;;;4964469;28;20137;-82
2022/07/07 05:38:58;;;;;;;9.57;2.40;;;15.50;1.00;;;;;;4962669;28;20177;-82
2022/07/07 05:41:24;;;;;;;10.85;2.25;;;15.40;19.40;;;;;;4943677;28;20435;-82
2022/07/07 05:43:50;;;;;;;7.78;1.98;;;15.40;1.00;;;;;;4946308;28;20074;-82
2022/07/07 05:46:15;;;;;;;10.95;2.40;;;15.50;1.00;;;;;;4946738;28;20053;-82
2022/07/07 05:48:41;;;;;;;9.60;2.58;;;15.40;1.00;;;;;;4946163;28;20041;-83
2022/07/07 05:51:07;;;;;;;10.65;2.97;;;15.40;1.00;;;;;;4944171;28;20534;-84
2022/07/07 05:53:33;;;;;;;9.63;2.50;;;15.40;3.40;;;;;;4955828;28;20035;-84
2022/07/07 05:55:59;;;;;;;9.90;2.75;;;15.30;21.90;;;;;;4947239;28;20062;-82
2022/07/07 05:58:25;;;;;;;12.32;3.28;;;15.30;3.80;;;;;;4946366;28;20042;-83
2022/07/07 06:00:51;;;;;;;16.35;2.80;;;15.40;64.60;;;;;;4960494;28;20054;-83
2022/07/07 06:03:17;;;;;;;8.40;2.30;;;15.50;1.00;;;;;;4958381;28;20126;-82
2022/07/07 06:05:43;;;;;;;11.55;2.83;;;15.60;1.00;;;;;;4962124;28;20082;-82
2022/07/07 06:08:09;;;;;;;12.38;2.92;;;15.80;1.00;;;;;;4946466;28;20528;-82
2022/07/07 06:10:36;;;;;;;8.30;2.50;;;15.90;1.00;;;;;;4944946;28;20031;-82
2022/07/07 06:13:02;;;;;;;13.27;2.83;;;15.80;99.90;;;;;;4944518;28;20443;-82
2022/07/07 06:15:27;;;;;;;8.23;2.15;;;15.90;99.90;;;;;;4944437;28;20053;-82
2022/07/07 06:17:54;;;;;;;12.88;2.60;;;15.90;1.00;;;;;;4951105;28;20043;-82
2022/07/07 06:20:20;;;;;;;8.93;2.40;;;16.10;99.90;;;;;;4960191;28;20043;-82
2022/07/07 06:22:45;;;;;;;9.93;2.88;;;16.40;99.90;;;;;;4959735;28;20403;-81
2022/07/07 06:25:11;;;;;;;10.05;2.20;;;16.60;99.90;;;;;;4946360;28;20461;-82
2022/07/07 06:27:38;;;;;;;11.50;2.40;;;16.70;99.90;;;;;;4941913;28;20042;-82
2022/07/07 06:30:05;;;;;;;14.05;2.55;;;16.60;99.90;;;;;;4952968;28;20133;-82
2022/07/07 06:32:31;;;;;;;7.50;1.70;;;16.40;99.90;;;;;;4970780;28;20553;-81
2022/07/07 06:34:57;;;;;;;6.50;1.48;;;16.40;99.90;;;;;;4945523;28;20049;-83
2022/07/07 06:37:23;;;;;;;7.18;1.90;;;16.00;75.10;;;;;;4938936;28;20039;-83
2022/07/07 06:39:49;;;;;;;10.63;2.45;;;16.00;99.90;;;;;;4948059;28;20332;-83
2022/07/07 06:42:15;;;;;;;7.80;2.08;;;16.00;99.90;;;;;;4960959;28;20061;-83
2022/07/07 06:44:41;;;;;;;5.30;1.60;;;15.90;99.90;;;;;;4964405;28;20043;-83
2022/07/07 06:47:07;;;;;;;6.40;1.85;;;16.10;99.90;;;;;;4960621;28;20070;-82
2022/07/07 06:49:33;;;;;;;8.43;1.67;;;16.30;99.90;;;;;;4964367;28;20142;-82
2022/07/07 06:51:59;;;;;;;7.18;1.83;;;16.40;99.90;;;;;;4965798;28;20043;-82
2022/07/07 06:54:25;;;;;;;5.72;1.55;;;16.40;99.90;;;;;;4947749;28;20215;-82
2022/07/07 06:56:51;;;;;;;6.15;1.58;;;16.60;99.90;;;;;;4947756;28;20069;-83
2022/07/07 06:59:16;;;;;;;5.70;1.35;;;16.80;99.90;;;;;;4954036;28;20122;-83
2022/07/07 07:01:43;;;;;;;8.48;2.30;;;16.70;99.90;;;;;;4941965;28;20043;-83
2022/07/07 07:04:09;;;;;;;6.45;1.20;;;16.60;99.90;;;;;;4946065;28;20521;-85
2022/07/07 07:06:35;;;;;;;4.05;1.05;;;15.90;99.90;;;;;;4942498;28;20817;-83
2022/07/07 07:09:02;;;;;;;3.95;1.00;;;15.60;99.90;;;;;;4948693;28;20805;-83
2022/07/07 07:11:28;;;;;;;2.00;1.00;;;15.60;99.90;;;;;;4945131;28;20061;-83
2022/07/07 07:13:56;;;;;;;3.75;0.45;;;15.80;1.00;;;;;;4946122;28;20038;-82
2022/07/07 07:16:22;;;;;;;3.47;0.80;;;15.80;99.90;;;;;;4949239;28;20518;-82
2022/07/07 07:18:47;;;;;;;4.65;1.20;;;16.10;99.90;;;;;;4963045;28;20054;-82
2022/07/07 07:21:13;;;;;;;6.15;0.85;;;16.30;99.90;;;;;;4947054;28;20496;-83
2022/07/07 07:23:39;;;;;;;4.40;1.23;;;16.30;99.90;;;;;;4942604;28;20035;-83
2022/07/07 07:26:06;;;;;;;4.85;1.42;;;16.60;99.90;;;;;;4936181;28;20039;-82
2022/07/07 07:28:33;;;;;;;2.90;0.85;;;16.50;99.90;;;;;;4947741;28;20042;-82
2022/07/07 07:31:00;;;;;;;4.30;1.00;;;16.40;99.90;;;;;;4962271;28;20498;-82
2022/07/07 07:33:26;;;;;;;2.78;1.15;;;16.50;99.90;;;;;;4950391;28;20372;-82
2022/07/07 07:35:51;;;;;;;2.63;0.95;;;16.50;99.90;;;;;;4961994;28;20054;-82
2022/07/07 07:38:17;;;;;;;3.45;0.95;;;16.70;99.90;;;;;;4945470;29;20070;-82
2022/07/07 07:40:43;;;;;;;5.55;1.30;;;17.10;99.90;;;;;;4961541;28;20037;-82
2022/07/07 07:43:09;;;;;;;2.58;0.95;;;17.10;99.90;;;;;;4946960;28;20676;-82
2022/07/07 07:45:35;;;;;;;3.03;0.85;;;16.90;99.90;;;;;;4965426;28;20034;-82
2022/07/07 07:48:04;;;;;;;3.28;0.95;;;16.80;99.90;;;;;;4948910;28;20043;-82
2022/07/07 07:50:31;;;;;;;2.75;1.02;;;16.60;99.90;;;;;;4947892;28;20030;-83
2022/07/07 07:52:57;;;;;;;5.85;1.20;;;16.30;99.90;;;;;;4961932;28;20043;-84
2022/07/07 07:55:24;;;;;;;5.45;1.15;;;16.10;99.90;;;;;;4958358;28;20053;-83
2022/07/07 07:57:51;;;;;;;5.95;1.40;;;16.00;99.90;;;;;;4948121;28;20402;-83
2022/07/07 08:00:21;;;;;;;3.47;1.08;;;16.00;99.90;;;;;;4948881;28;20869;-83
2022/07/07 08:02:47;;;;;;;5.60;1.20;;;16.20;99.90;;;;;;4949483;28;20139;-83
2022/07/07 08:05:16;;;;;;;2.95;0.85;;;16.40;1.00;;;;;;4946130;28;20049;-82
2022/07/07 08:07:45;;;;;;;3.25;1.15;;;16.40;99.90;;;;;;4959706;28;20040;-83
2022/07/07 08:10:15;;;;;;;3.45;0.90;;;16.70;1.00;;;;;;4947849;28;20043;-82
2022/07/07 08:12:42;;;;;;;5.22;1.40;;;16.80;99.90;;;;;;4958945;28;20038;-82
2022/07/07 08:15:09;;;;;;;4.90;1.10;;;17.30;1.00;;;;;;4945924;28;20039;-82
2022/07/07 08:17:35;;;;;;;6.45;1.27;;;17.40;99.90;;;;;;4949234;28;20309;-82
2022/07/07 08:20:01;;;;;;;6.18;1.35;;;17.20;99.90;;;;;;4976672;28;20299;-82
2022/07/07 08:22:27;;;;;;;4.82;1.50;;;17.10;99.90;;;;;;4946473;28;20148;-82
2022/07/07 08:24:53;;;;;;;5.63;1.13;;;17.00;99.90;;;;;;4944233;29;20127;-82
2022/07/07 08:27:19;;;;;;;7.00;1.40;;;17.10;96.10;;;;;;4945978;28;20213;-82
2022/07/07 08:29:45;;;;;;;6.85;1.77;;;17.10;99.90;;;;;;4946241;28;20044;-85
2022/07/07 08:32:11;;;;;;;6.28;1.92;;;17.00;99.90;;;;;;4939227;28;20125;-84
2022/07/07 08:34:38;;;;;;;5.90;1.48;;;16.70;99.90;;;;;;4943719;28;20047;-83
2022/07/07 08:37:05;;;;;;;8.07;1.60;;;16.70;99.90;;;;;;4946968;28;20399;-82
2022/07/07 08:39:31;;;;;;;4.85;1.65;;;17.00;1.00;;;;;;4946181;28;20110;-82
2022/07/07 08:41:59;;;;;;;6.28;1.40;;;17.00;1.00;;;;;;4959764;28;20458;-83
2022/07/07 08:44:25;;;;;;;7.25;2.33;;;17.30;1.00;;;;;;4957679;28;20630;-82
2022/07/07 08:46:51;;;;;;;12.48;1.92;;;17.80;99.90;;;;;;4954429;28;20135;-82
2022/07/07 08:49:18;;;;;;;5.70;1.70;;;17.70;99.90;;;;;;4947973;28;20557;-83
2022/07/07 08:51:45;;;;;;;6.47;1.60;;;17.20;99.90;;;;;;4947382;28;20046;-82
2022/07/07 08:54:13;;;;;;;7.93;2.03;;;17.10;99.90;;;;;;4958860;28;20047;-82
2022/07/07 08:56:39;;;;;;;9.48;2.25;;;17.30;99.90;;;;;;4936974;28;20463;-82
2022/07/07 08:59:07;;;;;;;9.30;2.08;;;17.20;99.90;;;;;;4947593;28;20428;-79
2022/07/07 09:01:33;;;;;;;10.05;2.75;;;17.40;99.90;;;;;;4943820;28;20077;-81
2022/07/07 09:04:03;;;;;;;7.82;1.92;;;17.40;99.90;;;;;;4959859;28;20041;-82
2022/07/07 09:06:29;;;;;;;11.18;2.22;;;17.00;99.90;;;;;;4945709;28;20463;-81
2022/07/07 09:08:55;;;;;;;6.20;1.80;;;17.20;99.90;;;;;;4945898;28;20031;-81
2022/07/07 09:11:29;;;;;;;6.78;1.83;;;17.40;99.90;;;;;;4938587;28;20047;-81
2022/07/07 09:14:08;;;;;;;7.75;1.77;;;17.60;99.90;;;;;;4954934;28;20110;-81
2022/07/07 09:16:36;;;;;;;7.68;2.20;;;17.40;99.90;;;;;;4962155;28;20059;-84
2022/07/07 09:19:02;;;;;;;5.03;1.33;;;17.10;1.00;;;;;;4958261;28;20105;-82
2022/07/07 09:21:33;;;;;;;4.57;1.33;;;16.60;99.90;;;;;;4945007;28;20038;-82
2022/07/07 09:24:07;;;;;;;3.85;1.13;;;16.60;1.00;;;;;;4954059;28;20046;-82
2022/07/07 09:26:43;;;;;;;4.50;1.42;;;16.70;99.90;;;;;;4946418;28;20434;-82
2022/07/07 09:29:20;;;;;;;5.40;1.80;;;17.00;99.90;;;;;;4944206;28;20049;-81
2022/07/07 09:31:53;;;;;;;4.13;1.60;;;17.10;99.90;;;;;;4960969;28;20065;-81
2022/07/07 09:34:20;;;;;;;7.18;2.20;;;17.30;99.90;;;;;;4952250;28;20072;-81
2022/07/07 09:39:48;;;;;;;4.55;1.52;;;17.90;99.90;;;;;;4957836;28;20077;-81
2022/07/07 09:42:18;;;;;;;6.20;1.50;;;17.90;99.90;;;;;;4943305;28;20114;-81
2022/07/07 09:44:47;;;;;;;5.07;1.38;;;17.80;10.40;;;;;;4942845;28;20042;-81
2022/07/07 09:47:12;;;;;;;5.60;1.58;;;17.70;99.90;;;;;;4969882;28;20342;-81
2022/07/07 09:49:43;;;;;;;5.85;1.70;;;17.50;42.80;;;;;;4938488;28;20073;-83
2022/07/07 09:52:19;;;;;;;3.40;1.60;;;17.20;99.90;;;;;;4952200;28;20173;-83
2022/07/07 09:54:51;;;;;;;4.70;1.70;;;16.80;99.90;;;;;;4938954;28;20046;-82
2022/07/07 09:57:17;;;;;;;5.20;1.90;;;16.90;99.90;;;;;;4951764;28;20110;-82
2022/07/07 09:59:44;;;;;;;6.13;1.83;;;17.10;99.90;;;;;;4960065;28;20538;-82
2022/07/07 10:02:19;;;;;;;6.80;1.70;;;17.20;99.90;;;;;;4951427;28;20165;-82
2022/07/07 10:04:53;;;;;;;5.20;1.80;;;17.00;99.90;;;;;;4950284;28;20390;-82
2022/07/07 10:07:27;;;;;;;3.83;1.38;;;16.70;99.90;;;;;;4940818;28;20046;-82
2022/07/07 10:10:00;;;;;;;4.25;1.45;;;16.50;99.90;;;;;;4943625;28;20190;-82
2022/07/07 10:12:28;;;;;;;2.72;1.05;;;16.70;99.90;;;;;;4936998;28;20049;-81
2022/07/07 10:15:01;;;;;;;5.63;0.98;;;17.10;99.90;;;;;;4952539;28;20130;-82
2022/07/07 10:17:28;;;;;;;3.28;1.05;;;17.30;99.90;;;;;;4942113;28;20035;-81
2022/07/07 10:19:54;;;;;;;3.72;1.13;;;17.40;99.90;;;;;;4959486;28;20033;-81
2022/07/07 10:22:27;;;;;;;5.78;1.35;;;17.10;99.90;;;;;;4959060;28;20047;-81
2022/07/07 10:24:59;;;;;;;4.78;1.40;;;16.80;99.90;;;;;;4953208;28;20364;-81
2022/07/07 10:27:27;;;;;;;4.40;1.27;;;16.90;99.90;;;;;;4941327;28;20042;-81
2022/07/07 10:29:54;;;;;;;4.38;1.38;;;17.30;74.40;;;;;;4957363;28;20944;-81
2022/07/07 10:32:31;;;;;;;5.72;1.48;;;17.30;92.80;;;;;;4968746;28;20042;-82
2022/07/07 10:35:04;;;;;;;11.35;2.05;;;16.70;99.90;;;;;;4975225;28;20054;-83
2022/07/07 10:37:44;;;;;;;8.80;2.13;;;16.30;99.90;;;;;;4953506;28;20054;-83
2022/07/07 10:40:17;;;;;;;9.93;2.00;;;16.30;99.90;;;;;;4944089;28;20042;-82
2022/07/07 10:42:56;;;;;;;10.85;1.83;;;16.40;99.90;;;;;;4935081;28;20050;-82
2022/07/07 10:45:22;;;;;;;5.00;1.73;;;16.60;99.90;;;;;;4955102;28;20435;-82
2022/07/07 10:47:48;;;;;;;6.60;2.15;;;16.70;99.90;;;;;;4942712;28;20075;-82
2022/07/07 10:50:26;;;;;;;8.68;2.15;;;16.90;99.90;;;;;;4967195;28;20035;-82
2022/07/07 10:52:52;;;;;;;9.90;2.60;;;16.90;1.00;;;;;;4958625;28;20047;-82
2022/07/07 10:55:18;;;;;;;9.30;2.25;;;17.00;1.00;;;;;;4941995;28;20050;-82
2022/07/07 10:57:46;;;;;;;11.25;2.78;;;16.90;99.90;;;;;;4944916;28;20050;-82
2022/07/07 11:00:16;;;;;;;13.15;2.58;;;16.80;1.00;;;;;;4941525;28;20047;-82
2022/07/07 11:03:07;;;;;;;9.00;2.30;;;16.70;1.00;;;;;;4933081;28;20051;-81
2022/07/07 11:05:34;;;;;;;10.52;2.75;;;16.50;1.00;;;;;;4973295;28;20046;-81
2022/07/07 11:08:02;;;;;;;12.77;2.63;;;16.70;99.90;;;;;;4943060;28;20400;-82
2022/07/07 11:10:45;;;;;;;9.30;2.50;;;16.80;99.90;;;;;;4957521;28;20464;-81
2022/07/07 11:13:19;;;;;;;11.85;2.90;;;17.10;99.90;;;;;;4953954;28;20260;-81
2022/07/07 11:15:46;;;;;;;16.73;2.70;;;17.00;99.90;;;;;;4936598;28;20152;-81
2022/07/07 11:18:19;;;;;;;11.45;2.60;;;16.70;99.90;;;;;;4932494;29;20375;-82
2022/07/07 11:21:04;;;;;;;11.85;2.75;;;16.70;99.90;;;;;;4972007;28;20074;-82
2022/07/07 11:23:48;;;;;;;14.23;2.72;;;16.40;99.90;;;;;;4954125;28;20081;-81
2022/07/07 11:26:16;;;;;;;11.68;2.85;;;16.20;99.90;;;;;;4944903;28;20372;-81
2022/07/07 11:28:42;;;;;;;9.25;2.88;;;16.30;99.90;;;;;;4947163;28;20424;-80
2022/07/07 11:31:09;;;;;;;13.35;2.67;;;16.40;99.90;;;;;;4945957;28;20605;-81
2022/07/07 11:33:35;;;;;;;13.82;2.63;;;16.60;99.90;;;;;;4955357;28;20395;-81
2022/07/07 11:36:16;;;;;;;13.40;3.13;;;16.70;99.90;;;;;;4947566;28;20314;-81
2022/07/07 11:38:44;;;;;;;15.13;2.47;;;16.70;99.90;;;;;;4946639;28;20038;-81
2022/07/07 11:41:09;;;;;;;8.77;2.25;;;17.00;99.90;;;;;;4962487;28;20397;-81
2022/07/07 11:43:35;;;;;;;9.60;2.45;;;16.90;99.90;;;;;;4959636;28;20076;-81
2022/07/07 11:46:01;;;;;;;9.70;2.38;;;17.10;99.90;;;;;;4939826;28;20099;-82
2022/07/07 11:48:35;;;;;;;11.32;2.40;;;17.30;99.90;;;;;;4955229;28;20046;-81
2022/07/07 11:51:01;;;;;;;9.90;2.78;;;17.10;90.80;;;;;;4976113;28;20030;-81
2022/07/07 11:53:26;;;;;;;11.25;2.58;;;17.10;99.90;;;;;;4946333;28;20031;-81
2022/07/07 11:55:52;;;;;;;11.68;3.05;;;17.30;48.70;;;;;;4945331;28;20372;-82
2022/07/07 11:58:18;;;;;;;9.10;1.88;;;17.40;99.90;;;;;;4955548;28;20142;-82
2022/07/07 12:00:43;;;;;;;9.02;2.03;;;17.40;99.90;;;;;;4942879;28;20325;-81
2022/07/07 12:03:10;;;;;;;7.20;2.03;;;17.40;19.10;;;;;;4952371;28;20042;-82
2022/07/07 12:05:43;;;;;;;8.10;2.00;;;17.80;14.00;;;;;;4972738;28;20506;-81
2022/07/07 12:08:14;;;;;;;8.85;2.08;;;17.80;1.00;;;;;;4959404;28;20040;-82
2022/07/07 12:10:51;;;;;;;6.68;1.88;;;17.60;31.90;;;;;;4949373;28;20113;-81
2022/07/07 12:13:20;;;;;;;13.52;2.80;;;17.50;1.00;;;;;;4959985;28;20043;-81
2022/07/07 12:15:50;;;;;;;10.63;2.75;;;18.20;81.40;;;;;;4957970;28;20554;-81
2022/07/07 12:18:24;;;;;;;12.30;2.58;;;18.00;7.60;;;;;;4968368;28;20096;-82
2022/07/07 12:21:21;;;;;;;7.72;2.60;;;17.70;4.70;;;;;;4944809;28;20297;-81
2022/07/07 12:23:51;;;;;;;11.15;2.75;;;17.60;14.00;;;;;;4940117;28;20130;-81
2022/07/07 12:26:20;;;;;;;10.80;2.78;;;17.40;99.90;;;;;;4961731;28;20070;-81
2022/07/07 12:28:48;;;;;;;12.88;2.95;;;17.40;99.90;;;;;;4956670;28;20045;-81
2022/07/07 12:31:22;;;;;;;11.00;2.50;;;17.50;99.60;;;;;;4960958;28;20042;-81
2022/07/07 12:33:48;;;;;;;17.27;3.00;;;17.40;99.90;;;;;;4943937;28;20586;-81
2022/07/07 12:36:21;;;;;;;9.38;2.75;;;17.30;99.90;;;;;;4944105;28;20082;-81
2022/07/07 12:38:49;;;;;;;14.55;2.58;;;17.60;99.90;;;;;;4959982;28;20789;-81
2022/07/07 12:41:26;;;;;;;12.52;2.75;;;17.30;98.20;;;;;;4958654;28;20487;-82
2022/07/07 12:44:10;;;;;;;10.00;2.55;;;17.30;99.90;;;;;;4944926;28;20590;-81
2022/07/07 12:46:36;;;;;;;8.57;2.22;;;17.50;96.90;;;;;;4949284;28;20540;-81
2022/07/07 12:49:03;;;;;;;9.65;2.20;;;17.70;1.00;;;;;;4945003;28;20110;-81
2022/07/07 12:51:30;;;;;;;7.45;2.50;;;17.80;12.60;;;;;;4961406;28;20295;-81